createdAt,value
2018-05-15T10:13:17.093Z,37.13
2018-05-15T10:14:17.114Z,36.65
2018-05-15T10:16:11.698Z,36.86
2018-05-15T10:17:11.632Z,35.99
2018-05-15T10:19:04.755Z,35.60
2018-05-15T10:20:04.847Z,35.80
2018-05-15T10:21:58.048Z,35.60
2018-05-15T10:22:57.957Z,35.12
2018-05-15T10:24:51.078Z,35.31
2018-05-15T10:25:50.995Z,35.23
2018-05-15T10:27:44.167Z,33.97
2018-05-15T10:28:44.078Z,33.87
2018-05-15T10:30:38.750Z,33.29
2018-05-15T10:31:38.684Z,34.28
2018-05-15T10:33:31.807Z,33.51
2018-05-15T10:34:31.777Z,33.59
2018-05-15T10:36:25.039Z,33.60
2018-05-15T10:37:24.996Z,32.34
2018-05-15T10:39:18.084Z,33.01
2018-05-15T10:40:18.012Z,33.20
2018-05-15T10:42:11.135Z,32.91
2018-05-15T10:43:11.064Z,33.29
2018-05-15T10:45:05.757Z,33.29
2018-05-15T10:46:05.703Z,33.20
2018-05-15T10:47:58.848Z,33.49
2018-05-15T10:48:58.767Z,33.10
2018-05-15T10:50:52.054Z,33.10
2018-05-15T10:51:51.867Z,33.49
2018-05-15T10:53:45.175Z,33.20
2018-05-15T10:54:46.263Z,32.91
2018-05-15T10:56:38.149Z,33.76
2018-05-15T10:57:38.111Z,34.25
2018-05-15T10:59:32.785Z,33.87
2018-05-15T11:00:32.661Z,33.97
2018-05-15T11:02:25.766Z,32.33
2018-05-15T11:03:25.703Z,32.52
2018-05-15T11:05:19.202Z,31.46
2018-05-15T11:06:18.863Z,31.83
2018-05-15T11:08:12.010Z,32.70
2018-05-15T11:09:11.915Z,33.09
2018-05-15T11:11:05.022Z,32.99
2018-05-15T11:12:04.945Z,33.09
2018-05-15T11:13:58.145Z,33.18
2018-05-15T11:14:58.051Z,33.57
2018-05-15T11:16:51.163Z,33.09
2018-05-15T11:17:51.068Z,33.37
2018-05-15T11:19:45.739Z,33.47
2018-05-15T11:20:45.647Z,32.97
2018-05-15T11:22:38.780Z,31.62
2018-05-15T11:23:38.721Z,32.20
2018-05-15T11:25:31.916Z,33.28
2018-05-15T11:26:31.795Z,32.99
2018-05-15T11:28:24.969Z,33.67
2018-05-15T11:29:24.851Z,33.95
2018-05-15T11:31:18.014Z,34.17
2018-05-15T11:32:17.908Z,33.95
2018-05-15T11:34:11.118Z,33.86
2018-05-15T11:35:11.005Z,34.44
2018-05-15T11:36:11.002Z,34.34
2018-05-15T11:37:10.997Z,34.92
2018-05-15T11:38:10.962Z,34.63
2018-05-15T11:39:10.950Z,34.63
2018-05-15T11:40:10.944Z,34.34
2018-05-15T11:41:10.940Z,34.44
2018-05-15T11:42:10.934Z,34.73
2018-05-15T11:43:10.920Z,34.73
2018-05-15T11:44:10.907Z,34.92
2018-05-15T11:45:10.889Z,33.76
2018-05-15T11:46:10.891Z,34.25
2018-05-15T11:47:10.896Z,34.73
2018-05-15T11:48:11.373Z,34.33
2018-05-15T11:49:11.384Z,34.73
2018-05-15T11:50:11.453Z,34.44
2018-05-15T11:51:11.419Z,34.34
2018-05-15T11:52:11.569Z,33.95
2018-05-15T11:53:11.716Z,33.28
2018-05-15T11:54:10.815Z,33.95
2018-05-15T11:55:10.822Z,33.57
2018-05-15T11:56:10.817Z,33.47
2018-05-15T11:57:10.813Z,33.18
2018-05-15T11:58:10.917Z,33.67
2018-05-15T11:59:10.793Z,33.57
2018-05-15T12:00:10.896Z,33.37
2018-05-15T12:01:10.772Z,33.07
2018-05-15T12:02:10.791Z,33.09
2018-05-15T12:03:10.751Z,32.99
2018-05-15T12:04:10.846Z,32.41
2018-05-15T12:05:10.750Z,32.60
2018-05-15T12:06:10.740Z,33.28
2018-05-15T12:07:10.726Z,33.09
2018-05-15T12:08:10.793Z,33.18
2018-05-15T12:09:10.720Z,32.60
2018-05-15T12:10:10.714Z,32.79
2018-05-15T12:11:10.692Z,32.89
2018-05-15T12:12:10.682Z,32.99
2018-05-15T12:13:10.691Z,32.89
2018-05-15T12:14:11.054Z,32.79
2018-05-15T12:15:10.894Z,32.60
2018-05-15T12:16:10.701Z,33.09
2018-05-15T12:17:10.662Z,32.02
2018-05-15T12:18:10.642Z,31.63
2018-05-15T12:19:10.638Z,32.60
2018-05-15T12:20:10.623Z,32.79
2018-05-15T12:21:10.677Z,33.47
2018-05-15T12:22:10.595Z,33.59
2018-05-15T12:23:10.613Z,33.49
2018-05-15T12:24:10.578Z,32.91
2018-05-15T12:25:10.563Z,31.65
2018-05-15T12:26:10.550Z,30.68
2018-05-15T12:27:10.552Z,30.88
2018-05-15T12:28:10.546Z,31.94
2018-05-15T12:29:10.591Z,32.42
2018-05-15T12:30:10.560Z,32.42
2018-05-15T12:31:10.520Z,33.37
2018-05-15T12:32:10.517Z,32.12
2018-05-15T12:33:10.517Z,31.73
2018-05-15T12:34:10.507Z,31.81
2018-05-15T12:35:10.500Z,32.31
2018-05-15T12:36:10.515Z,31.52
2018-05-15T12:37:10.486Z,31.23
2018-05-15T12:38:10.451Z,31.52
2018-05-15T12:39:10.470Z,31.81
2018-05-15T12:40:10.442Z,31.33
2018-05-15T12:41:10.539Z,30.94
2018-05-15T12:42:10.805Z,31.23
2018-05-15T12:43:10.515Z,31.91
2018-05-15T12:44:10.416Z,31.91
2018-05-15T12:45:10.448Z,31.91
2018-05-15T12:46:10.398Z,32.21
2018-05-15T12:47:10.373Z,32.51
2018-05-15T12:48:10.427Z,32.51
2018-05-15T12:49:10.558Z,33.09
2018-05-15T12:50:10.389Z,31.34
2018-05-15T12:51:10.384Z,31.54
2018-05-15T12:52:10.412Z,30.66
2018-05-15T12:53:10.331Z,31.15
2018-05-15T12:54:10.361Z,31.63
2018-05-15T12:55:10.419Z,31.73
2018-05-15T12:56:10.316Z,31.84
2018-05-15T12:57:10.309Z,31.44
2018-05-15T12:58:10.299Z,31.25
2018-05-15T12:59:10.283Z,31.34
2018-05-15T13:00:10.310Z,31.73
2018-05-15T13:01:10.283Z,31.83
2018-05-15T13:02:10.264Z,31.83
2018-05-15T13:03:10.246Z,32.02
2018-05-15T13:04:10.220Z,31.63
2018-05-15T13:05:10.216Z,30.86
2018-05-15T13:06:10.233Z,31.07
2018-05-15T13:07:10.216Z,30.49
2018-05-15T13:08:10.231Z,30.88
2018-05-15T13:09:10.174Z,30.29
2018-05-15T13:10:10.199Z,30.49
2018-05-15T13:11:10.174Z,31.16
2018-05-15T13:12:10.188Z,31.07
2018-05-15T13:13:10.158Z,30.38
2018-05-15T13:14:10.168Z,30.96
2018-05-15T13:15:10.142Z,31.44
2018-05-15T13:16:10.140Z,31.26
2018-05-15T13:17:10.108Z,31.26
2018-05-15T13:18:10.111Z,31.07
2018-05-15T13:19:10.157Z,30.58
2018-05-15T13:20:10.088Z,30.78
2018-05-15T13:21:10.071Z,30.58
2018-05-15T13:22:10.054Z,30.88
2018-05-15T13:23:10.038Z,31.26
2018-05-15T13:24:10.050Z,31.46
2018-05-15T13:25:10.027Z,32.23
2018-05-15T13:26:10.036Z,31.74
2018-05-15T13:27:10.023Z,31.84
2018-05-15T13:28:10.003Z,32.23
2018-05-15T13:29:09.992Z,32.33
2018-05-15T13:30:10.006Z,32.42
2018-05-15T13:31:09.995Z,32.14
2018-05-15T13:32:09.971Z,32.23
2018-05-15T13:33:09.993Z,31.65
2018-05-15T13:34:09.987Z,31.57
2018-05-15T13:35:09.931Z,31.46
2018-05-15T13:36:09.947Z,32.04
2018-05-15T13:37:09.949Z,32.89
2018-05-15T13:38:09.933Z,33.29
2018-05-15T13:39:09.902Z,32.42
2018-05-15T13:40:09.938Z,31.84
2018-05-15T13:41:09.936Z,31.84
2018-05-15T13:42:09.897Z,32.14
2018-05-15T13:43:09.884Z,31.56
2018-05-15T13:44:09.923Z,31.65
2018-05-15T13:45:09.863Z,32.62
2018-05-15T13:46:09.847Z,32.73
2018-05-15T13:47:09.844Z,32.34
2018-05-15T13:48:09.851Z,32.15
2018-05-15T13:49:09.843Z,31.96
2018-05-15T13:50:09.813Z,31.18
2018-05-15T13:51:09.828Z,30.99
2018-05-15T13:52:09.831Z,31.37
2018-05-15T13:53:09.835Z,31.28
2018-05-15T13:54:09.819Z,31.37
2018-05-15T13:55:09.794Z,31.86
2018-05-15T13:56:09.761Z,31.86
2018-05-15T13:57:09.760Z,31.76
2018-05-15T13:58:09.762Z,31.86
2018-05-15T13:59:09.780Z,32.15
2018-05-15T14:00:09.731Z,31.76
2018-05-15T14:01:09.738Z,31.47
2018-05-15T14:02:09.692Z,31.67
2018-05-15T14:03:09.701Z,31.47
2018-05-15T14:04:09.713Z,31.18
2018-05-15T14:05:09.688Z,30.98
2018-05-15T14:06:09.681Z,31.36
2018-05-15T14:07:09.684Z,32.14
2018-05-15T14:08:09.664Z,32.14
2018-05-15T14:09:09.716Z,31.46
2018-05-15T14:10:09.651Z,31.36
2018-05-15T14:11:09.643Z,31.63
2018-05-15T14:12:09.637Z,31.94
2018-05-15T14:13:09.619Z,31.74
2018-05-15T14:14:09.628Z,31.74
2018-05-15T14:15:09.601Z,31.46
2018-05-15T14:16:09.596Z,31.37
2018-05-15T14:17:09.596Z,30.79
2018-05-15T14:18:09.583Z,30.99
2018-05-15T14:19:09.677Z,30.99
2018-05-15T14:20:09.599Z,31.09
2018-05-15T14:21:09.556Z,30.99
2018-05-15T14:22:09.563Z,30.79
2018-05-15T14:23:09.559Z,30.89
2018-05-15T14:24:09.537Z,31.28
2018-05-15T14:25:09.521Z,31.18
2018-05-15T14:26:09.531Z,30.69
2018-05-15T14:27:09.489Z,30.41
2018-05-15T14:28:09.577Z,30.89
2018-05-15T14:29:09.490Z,31.09
2018-05-15T14:30:09.508Z,31.47
2018-05-15T14:31:09.476Z,31.37
2018-05-15T14:32:09.472Z,31.67
2018-05-15T14:33:09.459Z,31.36
2018-05-15T14:34:09.456Z,31.73
2018-05-15T14:35:09.462Z,32.12
2018-05-15T14:36:09.449Z,32.12
2018-05-15T14:37:09.422Z,32.60
2018-05-15T14:38:09.408Z,32.60
2018-05-15T14:39:09.409Z,31.93
2018-05-15T14:40:09.437Z,31.73
2018-05-15T14:41:09.386Z,32.51
2018-05-15T14:42:09.387Z,32.12
2018-05-15T14:43:09.416Z,32.02
2018-05-15T14:44:09.354Z,31.63
2018-05-15T14:45:09.332Z,31.74
2018-05-15T14:46:09.337Z,31.36
2018-05-15T14:47:09.349Z,30.58
2018-05-15T14:48:09.341Z,29.53
2018-05-15T14:49:09.317Z,29.05
2018-05-15T14:50:09.322Z,29.53
2018-05-15T14:51:09.297Z,29.34
2018-05-15T14:52:09.304Z,29.05
2018-05-15T14:53:09.298Z,29.05
2018-05-15T14:54:09.287Z,29.34
2018-05-15T14:55:09.294Z,29.81
2018-05-15T14:56:09.269Z,29.81
2018-05-15T14:57:09.253Z,29.53
2018-05-15T14:58:09.231Z,29.92
2018-05-15T14:59:09.491Z,29.92
2018-05-15T15:00:09.250Z,29.83
2018-05-15T15:01:09.221Z,30.02
2018-05-15T15:02:09.210Z,29.83
2018-05-15T15:03:09.216Z,29.84
2018-05-15T15:04:09.236Z,29.73
2018-05-15T15:05:09.196Z,30.32
2018-05-15T15:06:09.149Z,29.74
2018-05-15T15:07:09.164Z,29.46
2018-05-15T15:08:09.168Z,28.97
2018-05-15T15:09:09.160Z,29.44
2018-05-15T15:10:09.144Z,29.55
2018-05-15T15:11:09.135Z,29.94
2018-05-15T15:12:09.115Z,30.41
2018-05-15T15:13:09.117Z,30.98
2018-05-15T15:14:09.115Z,31.44
2018-05-15T15:15:09.102Z,32.21
2018-05-15T15:16:09.123Z,32.41
2018-05-15T15:17:09.116Z,32.12
2018-05-15T15:18:09.097Z,32.12
2018-05-15T15:19:09.087Z,32.51
2018-05-15T15:20:09.090Z,32.60
2018-05-15T15:21:09.029Z,32.60
2018-05-15T15:22:09.052Z,32.70
2018-05-15T15:23:09.052Z,32.51
2018-05-15T15:24:09.029Z,32.51
2018-05-15T15:25:09.037Z,33.10
2018-05-15T15:26:09.026Z,32.33
2018-05-15T15:27:08.992Z,32.02
2018-05-15T15:28:09.025Z,32.51
2018-05-15T15:29:09.049Z,31.83
2018-05-15T15:30:08.973Z,32.70
2018-05-15T15:31:09.004Z,33.09
2018-05-15T15:32:08.970Z,33.09
2018-05-15T15:33:08.946Z,33.47
2018-05-15T15:34:08.923Z,33.57
2018-05-15T15:35:09.013Z,32.99
2018-05-15T15:36:08.932Z,33.10
2018-05-15T15:37:08.932Z,33.01
2018-05-15T15:38:08.929Z,33.01
2018-05-15T15:39:08.876Z,32.54
2018-05-15T15:40:08.940Z,31.67
2018-05-15T15:41:08.876Z,31.76
2018-05-15T15:42:08.835Z,31.74
2018-05-15T15:43:08.827Z,32.24
2018-05-15T15:44:08.844Z,32.44
2018-05-15T15:45:08.885Z,32.34
2018-05-15T15:46:08.845Z,32.44
2018-05-15T15:47:08.794Z,32.64
2018-05-15T15:48:08.817Z,31.84
2018-05-15T15:49:08.769Z,32.33
2018-05-15T15:50:08.755Z,33.10
2018-05-15T15:51:08.778Z,33.39
2018-05-15T15:52:08.743Z,33.29
2018-05-15T15:53:08.734Z,33.20
2018-05-15T15:54:08.753Z,32.81
2018-05-15T15:55:08.717Z,33.29
2018-05-15T15:56:08.726Z,33.10
2018-05-15T15:57:08.702Z,33.59
2018-05-15T15:58:08.692Z,33.87
2018-05-15T15:59:08.680Z,32.89
2018-05-15T16:00:08.685Z,33.39
2018-05-15T16:01:08.672Z,33.20
2018-05-15T16:02:08.655Z,33.10
2018-05-15T16:03:08.668Z,32.52
2018-05-15T16:04:08.758Z,32.42
2018-05-15T16:05:08.667Z,32.51
2018-05-15T16:06:08.723Z,32.41
2018-05-15T16:07:08.610Z,32.51
2018-05-15T16:08:08.597Z,33.01
2018-05-15T16:09:08.659Z,32.42
2018-05-15T16:10:08.693Z,31.74
2018-05-15T16:11:08.578Z,31.46
2018-05-15T16:12:08.583Z,31.26
2018-05-15T16:13:08.566Z,31.26
2018-05-15T16:14:08.568Z,31.16
2018-05-15T16:15:08.569Z,31.26
2018-05-15T16:16:08.573Z,30.98
2018-05-15T16:17:08.550Z,31.46
2018-05-15T16:18:08.525Z,31.46
2018-05-15T16:19:08.507Z,31.44
2018-05-15T16:20:08.497Z,31.44
2018-05-15T16:21:08.503Z,31.54
2018-05-15T16:22:08.568Z,31.73
2018-05-15T16:23:08.503Z,31.54
2018-05-15T16:24:08.478Z,31.63
2018-05-15T16:25:08.472Z,32.02
2018-05-15T16:26:08.450Z,32.60
2018-05-15T16:27:08.438Z,32.51
2018-05-15T16:28:08.428Z,32.51
2018-05-15T16:29:08.427Z,32.89
2018-05-15T16:30:08.422Z,32.70
2018-05-15T16:31:08.487Z,33.37
2018-05-15T16:32:08.415Z,33.37
2018-05-15T16:33:08.391Z,33.47
2018-05-15T16:34:08.421Z,33.86
2018-05-15T16:35:08.373Z,34.05
2018-05-15T16:36:08.362Z,33.94
2018-05-15T16:37:08.364Z,34.34
2018-05-15T16:38:08.360Z,34.04
2018-05-15T16:39:08.367Z,34.04
2018-05-15T16:40:08.340Z,33.75
2018-05-15T16:41:08.329Z,34.13
2018-05-15T16:42:08.349Z,34.13
2018-05-15T16:43:08.306Z,34.33
2018-05-15T16:44:08.309Z,34.23
2018-05-15T16:45:08.303Z,34.71
2018-05-15T16:46:08.313Z,34.71
2018-05-15T16:47:08.276Z,34.71
2018-05-15T16:48:08.289Z,34.81
2018-05-15T16:49:08.243Z,34.71
2018-05-15T16:50:08.262Z,35.29
2018-05-15T16:51:08.248Z,35.10
2018-05-15T16:52:08.266Z,35.29
2018-05-15T16:53:08.267Z,35.20
2018-05-15T16:54:08.227Z,35.57
2018-05-15T16:55:08.204Z,35.10
2018-05-15T16:56:08.191Z,35.10
2018-05-15T16:57:08.192Z,35.20
2018-05-15T16:58:08.197Z,35.20
2018-05-15T16:59:08.217Z,35.39
2018-05-15T17:00:08.178Z,35.76
2018-05-15T17:01:08.166Z,35.49
2018-05-15T17:02:08.143Z,36.07
2018-05-15T17:03:08.144Z,35.20
2018-05-15T17:04:08.131Z,35.49
2018-05-15T17:05:08.114Z,35.88
2018-05-15T17:06:08.214Z,35.49
2018-05-15T17:07:08.108Z,35.49
2018-05-15T17:08:08.221Z,35.97
2018-05-15T17:09:08.085Z,35.10
2018-05-15T17:10:08.062Z,35.20
2018-05-15T17:11:08.071Z,35.10
2018-05-15T17:12:08.091Z,35.39
2018-05-15T17:13:08.149Z,35.68
2018-05-15T17:14:08.039Z,35.68
2018-05-15T17:15:08.032Z,35.88
2018-05-15T17:16:08.059Z,36.07
2018-05-15T17:17:08.020Z,36.36
2018-05-15T17:18:07.977Z,35.97
2018-05-15T17:19:07.977Z,35.86
2018-05-15T17:20:08.003Z,35.86
2018-05-15T17:21:07.992Z,36.24
2018-05-15T17:22:07.948Z,36.63
2018-05-15T17:23:07.959Z,36.65
2018-05-15T17:24:08.001Z,36.74
2018-05-15T17:25:07.945Z,36.82
2018-05-15T17:26:07.941Z,36.65
2018-05-15T17:27:07.905Z,36.65
2018-05-15T17:28:07.927Z,36.94
2018-05-15T17:29:07.882Z,36.94
2018-05-15T17:30:07.893Z,36.74
2018-05-15T17:31:07.936Z,37.13
2018-05-15T17:32:07.859Z,37.13
2018-05-15T17:33:07.879Z,36.94
2018-05-15T17:34:07.875Z,37.13
2018-05-15T17:35:07.872Z,36.94
2018-05-15T17:36:07.891Z,36.46
2018-05-15T17:37:07.845Z,36.26
2018-05-15T17:38:07.840Z,36.36
2018-05-15T17:39:07.851Z,36.36
2018-05-15T17:40:07.846Z,36.16
2018-05-15T17:41:07.825Z,36.46
2018-05-15T17:42:07.814Z,36.16
2018-05-15T17:43:07.812Z,36.55
2018-05-15T17:44:07.772Z,36.55
2018-05-15T17:45:07.783Z,36.74
2018-05-15T17:46:07.778Z,36.74
2018-05-15T17:47:07.748Z,36.94
2018-05-15T17:48:07.769Z,36.65
2018-05-15T17:49:07.776Z,37.23
2018-05-15T17:50:07.737Z,37.23
2018-05-15T17:51:07.725Z,37.32
2018-05-15T17:52:07.700Z,37.52
2018-05-15T17:53:07.774Z,37.81
2018-05-15T17:54:07.705Z,38.20
2018-05-15T17:55:07.671Z,38.20
2018-05-15T17:56:07.721Z,37.32
2018-05-15T17:57:07.670Z,37.12
2018-05-15T17:58:07.653Z,38.00
2018-05-15T17:59:07.674Z,37.71
2018-05-15T18:00:07.669Z,36.74
2018-05-15T18:01:07.610Z,37.21
2018-05-15T18:02:07.643Z,36.92
2018-05-15T18:03:07.623Z,37.12
2018-05-15T18:04:07.600Z,36.53
2018-05-15T18:05:07.568Z,36.53
2018-05-15T18:06:07.574Z,36.44
2018-05-15T18:07:07.579Z,36.53
2018-05-15T18:08:07.598Z,36.82
2018-05-15T18:09:07.552Z,37.02
2018-05-15T18:10:07.560Z,36.82
2018-05-15T18:11:07.528Z,36.82
2018-05-15T18:12:07.521Z,37.21
2018-05-15T18:13:07.524Z,37.40
2018-05-15T18:14:07.487Z,37.02
2018-05-15T18:15:07.498Z,37.30
2018-05-15T18:16:07.456Z,37.40
2018-05-15T18:17:07.445Z,37.88
2018-05-15T18:18:07.465Z,37.77
2018-05-15T18:19:07.429Z,38.08
2018-05-15T18:20:07.432Z,37.96
2018-05-15T18:21:07.439Z,38.45
2018-05-15T18:22:07.457Z,38.45
2018-05-15T18:23:07.405Z,38.35
2018-05-15T18:24:07.410Z,38.54
2018-05-15T18:25:07.396Z,38.54
2018-05-15T18:26:07.380Z,39.03
2018-05-15T18:27:07.404Z,38.64
2018-05-15T18:28:07.396Z,38.54
2018-05-15T18:29:07.389Z,38.93
2018-05-15T18:30:07.374Z,39.22
2018-05-15T18:31:07.388Z,39.22
2018-05-15T18:32:07.313Z,39.22
2018-05-15T18:33:07.425Z,38.93
2018-05-15T18:34:07.324Z,39.22
2018-05-15T18:35:07.276Z,39.32
2018-05-15T18:36:07.308Z,39.11
2018-05-15T18:37:07.282Z,39.59
2018-05-15T18:38:07.274Z,39.59
2018-05-15T18:39:07.305Z,39.49
2018-05-15T18:40:07.255Z,40.07
2018-05-15T18:41:07.259Z,39.97
2018-05-15T18:42:07.239Z,40.65
2018-05-15T18:43:07.237Z,40.45
2018-05-15T18:44:07.225Z,39.97
2018-05-15T18:45:07.228Z,40.55
2018-05-15T18:46:07.204Z,40.84
2018-05-15T18:47:07.164Z,40.94
2018-05-15T18:48:07.167Z,41.61
2018-05-15T18:49:07.165Z,41.61
2018-05-15T18:50:07.147Z,40.94
2018-05-15T18:51:07.156Z,40.65
2018-05-15T18:52:07.113Z,40.84
2018-05-15T18:53:07.111Z,40.65
2018-05-15T18:54:07.101Z,40.84
2018-05-15T18:55:07.098Z,40.94
2018-05-15T18:56:07.158Z,41.52
2018-05-15T18:57:07.128Z,41.52
2018-05-15T18:58:07.065Z,41.71
2018-05-15T18:59:07.080Z,41.61
2018-05-15T19:00:07.065Z,41.33
2018-05-15T19:01:07.056Z,41.42
2018-05-15T19:02:07.042Z,41.71
2018-05-15T19:03:07.100Z,41.98
2018-05-15T19:04:06.997Z,41.88
2018-05-15T19:05:07.015Z,41.98
2018-05-15T19:06:07.021Z,42.08
2018-05-15T19:07:06.986Z,42.75
2018-05-15T19:08:25.658Z,42.94
2018-05-15T19:09:10.177Z,43.33
2018-05-15T19:10:06.979Z,43.24
2018-05-15T19:11:07.152Z,43.52
2018-05-15T19:12:06.939Z,43.81
2018-05-15T19:13:06.937Z,43.81
2018-05-15T19:14:06.949Z,44.39
2018-05-15T19:15:06.904Z,44.49
2018-05-15T19:16:06.944Z,44.97
2018-05-15T19:17:06.892Z,45.45
2018-05-15T19:18:06.886Z,45.84
2018-05-15T19:19:06.882Z,46.01
2018-05-15T19:20:06.873Z,45.72
2018-05-15T19:21:06.862Z,46.01
2018-05-15T19:22:06.859Z,45.82
2018-05-15T19:23:06.857Z,45.82
2018-05-15T19:24:06.810Z,45.92
2018-05-15T19:25:06.792Z,46.01
2018-05-15T19:26:06.803Z,45.72
2018-05-15T19:27:06.807Z,45.92
2018-05-15T19:28:06.775Z,46.01
2018-05-15T19:29:06.782Z,45.92
2018-05-15T19:30:06.768Z,45.72
2018-05-15T19:31:06.752Z,46.01
2018-05-15T19:32:06.763Z,46.20
2018-05-15T19:33:06.755Z,46.18
2018-05-15T19:34:06.730Z,46.30
2018-05-15T19:35:06.736Z,46.40
2018-05-15T19:36:06.738Z,46.66
2018-05-15T19:37:06.697Z,46.66
2018-05-15T19:38:06.680Z,46.28
2018-05-15T19:39:06.680Z,46.86
2018-05-15T19:40:06.667Z,46.56
2018-05-15T19:41:06.660Z,46.95
2018-05-15T19:42:06.658Z,46.86
2018-05-15T19:43:06.630Z,46.86
2018-05-15T19:44:06.669Z,46.95
2018-05-15T19:45:06.593Z,46.95
2018-05-15T19:46:06.589Z,46.66
2018-05-15T19:47:06.575Z,46.56
2018-05-15T19:48:06.586Z,46.95
2018-05-15T19:49:06.559Z,46.56
2018-05-15T19:50:06.557Z,46.66
2018-05-15T19:51:06.591Z,46.18
2018-05-15T19:52:06.551Z,46.86
2018-05-15T19:53:06.526Z,46.08
2018-05-15T19:54:06.503Z,46.76
2018-05-15T19:55:06.496Z,46.37
2018-05-15T19:56:06.516Z,46.56
2018-05-15T19:57:06.493Z,46.47
2018-05-15T19:58:06.444Z,46.45
2018-05-15T19:59:06.450Z,46.45
2018-05-15T20:00:06.451Z,46.93
2018-05-15T20:01:06.443Z,46.93
2018-05-15T20:02:06.413Z,46.93
2018-05-15T20:03:06.478Z,46.64
2018-05-15T20:04:06.443Z,46.73
2018-05-15T20:05:06.417Z,47.03
2018-05-15T20:06:06.357Z,46.64
2018-05-15T20:07:06.345Z,47.41
2018-05-15T20:08:06.362Z,47.12
2018-05-15T20:09:06.432Z,47.22
2018-05-15T20:10:06.376Z,47.70
2018-05-15T20:11:06.362Z,47.70
2018-05-15T20:12:06.313Z,47.51
2018-05-15T20:13:06.322Z,47.70
2018-05-15T20:14:06.324Z,46.83
2018-05-15T20:15:06.292Z,47.41
2018-05-15T20:16:06.351Z,48.08
2018-05-15T20:17:06.260Z,47.41
2018-05-15T20:18:06.265Z,47.70
2018-05-15T20:19:06.234Z,47.51
2018-05-15T20:20:06.252Z,48.08
2018-05-15T20:21:06.245Z,48.08
2018-05-15T20:22:06.200Z,48.28
2018-05-15T20:23:06.159Z,48.28
2018-05-15T20:24:06.147Z,48.86
2018-05-15T20:25:06.139Z,48.47
2018-05-15T20:26:06.172Z,48.64
2018-05-15T20:27:06.127Z,48.93
2018-05-15T20:28:06.132Z,48.83
2018-05-15T20:29:06.155Z,48.95
2018-05-15T20:30:06.142Z,49.60
2018-05-15T20:31:06.187Z,49.02
2018-05-15T20:32:06.057Z,49.41
2018-05-15T20:33:06.071Z,49.41
2018-05-15T20:34:06.167Z,49.41
2018-05-15T20:35:06.087Z,48.93
2018-05-15T20:36:06.067Z,49.51
2018-05-15T20:37:06.062Z,49.32
2018-05-15T20:38:06.015Z,49.70
2018-05-15T20:39:05.991Z,49.99
2018-05-15T20:40:06.055Z,49.70
2018-05-15T20:41:06.577Z,49.70
2018-05-15T20:42:05.992Z,49.89
2018-05-15T20:43:05.964Z,50.18
2018-05-15T20:44:05.920Z,49.99
2018-05-15T20:45:05.930Z,49.99
2018-05-15T20:46:05.910Z,50.18
2018-05-15T20:47:05.877Z,50.57
2018-05-15T20:48:05.879Z,50.37
2018-05-15T20:49:05.874Z,50.57
2018-05-15T20:50:05.848Z,50.66
2018-05-15T20:51:05.852Z,50.37
2018-05-15T20:52:05.851Z,50.85
2018-05-15T20:53:05.803Z,50.95
2018-05-15T20:54:05.793Z,50.95
2018-05-15T20:55:05.785Z,50.95
2018-05-15T20:56:05.786Z,51.14
2018-05-15T20:57:05.753Z,51.14
2018-05-15T20:58:05.817Z,50.95
2018-05-15T20:59:05.773Z,51.05
2018-05-15T21:00:05.738Z,51.14
2018-05-15T21:01:05.747Z,50.85
2018-05-15T21:02:05.718Z,50.85
2018-05-15T21:03:05.691Z,51.34
2018-05-15T21:04:05.718Z,51.53
2018-05-15T21:05:05.668Z,51.53
2018-05-15T21:06:05.653Z,51.60
2018-05-15T21:07:05.653Z,51.43
2018-05-15T21:08:05.681Z,51.60
2018-05-15T21:09:05.619Z,51.31
2018-05-15T21:10:05.632Z,51.53
2018-05-15T21:11:05.599Z,51.72
2018-05-15T21:12:05.582Z,51.50
2018-05-15T21:13:05.578Z,51.79
2018-05-15T21:14:05.569Z,51.98
2018-05-15T21:15:05.612Z,51.98
2018-05-15T21:16:05.544Z,52.08
2018-05-15T21:17:05.588Z,52.59
2018-05-15T21:18:05.545Z,52.47
2018-05-15T21:19:05.526Z,52.18
2018-05-15T21:20:05.634Z,52.66
2018-05-15T21:21:05.518Z,52.95
2018-05-15T21:22:05.535Z,52.85
2018-05-15T21:23:05.491Z,52.85
2018-05-15T21:24:05.469Z,53.53
2018-05-15T21:25:05.439Z,53.23
2018-05-15T21:26:05.450Z,53.23
2018-05-15T21:27:05.416Z,53.23
2018-05-15T21:28:05.402Z,53.43
2018-05-15T21:29:05.407Z,53.81
2018-05-15T21:30:05.511Z,53.23
2018-05-15T21:31:05.375Z,53.53
2018-05-15T21:32:05.550Z,53.43
2018-05-15T21:33:05.334Z,53.43
2018-05-15T21:34:05.333Z,53.53
2018-05-15T21:35:05.328Z,54.20
2018-05-15T21:36:05.347Z,53.59
2018-05-15T21:37:05.299Z,54.00
2018-05-15T21:38:05.300Z,53.72
2018-05-15T21:39:05.319Z,54.00
2018-05-15T21:40:05.270Z,54.20
2018-05-15T21:41:05.282Z,53.98
2018-05-15T21:42:05.272Z,54.27
2018-05-15T21:43:05.239Z,54.27
2018-05-15T21:44:05.222Z,54.27
2018-05-15T21:45:05.207Z,54.17
2018-05-15T21:46:05.215Z,54.36
2018-05-15T21:47:05.218Z,54.27
2018-05-15T21:48:05.223Z,54.56
2018-05-15T21:49:05.175Z,54.75
2018-05-15T21:50:05.145Z,54.56
2018-05-15T21:51:05.142Z,54.75
2018-05-15T21:52:05.123Z,54.65
2018-05-15T21:53:05.134Z,54.85
2018-05-15T21:54:05.094Z,54.94
2018-05-15T21:55:05.103Z,54.75
2018-05-15T21:56:05.081Z,54.85
2018-05-15T21:57:05.068Z,54.46
2018-05-15T21:58:05.048Z,54.65
2018-05-15T21:59:05.059Z,54.65
2018-05-15T22:00:05.024Z,54.75
2018-05-15T22:01:05.096Z,55.43
2018-05-15T22:02:05.002Z,55.71
2018-05-15T22:03:04.992Z,55.52
2018-05-15T22:04:04.986Z,55.33
2018-05-15T22:05:04.994Z,55.43
2018-05-15T22:06:04.980Z,55.13
2018-05-15T22:07:04.945Z,55.90
2018-05-15T22:08:04.932Z,55.71
2018-05-15T22:09:04.922Z,55.71
2018-05-15T22:10:04.920Z,55.62
2018-05-15T22:11:04.897Z,55.62
2018-05-15T22:12:04.882Z,56.20
2018-05-15T22:13:04.870Z,56.29
2018-05-15T22:14:04.856Z,56.38
2018-05-15T22:15:04.847Z,56.48
2018-05-15T22:16:04.830Z,56.48
2018-05-15T22:17:04.813Z,56.77
2018-05-15T22:18:04.817Z,56.29
2018-05-15T22:19:04.827Z,56.20
2018-05-15T22:20:04.783Z,56.67
2018-05-15T22:21:04.772Z,56.20
2018-05-15T22:22:04.763Z,56.20
2018-05-15T22:23:04.748Z,56.20
2018-05-15T22:24:04.778Z,56.29
2018-05-15T22:25:04.727Z,56.58
2018-05-15T22:26:04.715Z,56.48
2018-05-15T22:27:04.702Z,56.96
2018-05-15T22:28:04.692Z,56.67
2018-05-15T22:29:04.675Z,56.48
2018-05-15T22:30:04.676Z,56.96
2018-05-15T22:31:04.652Z,57.54
2018-05-15T22:32:04.649Z,57.51
2018-05-15T22:33:04.636Z,57.60
2018-05-15T22:34:04.615Z,57.51
2018-05-15T22:35:04.608Z,57.60
2018-05-15T22:36:04.596Z,56.93
2018-05-15T22:37:04.585Z,57.03
2018-05-15T22:38:04.570Z,57.32
2018-05-15T22:39:04.572Z,57.70
2018-05-15T22:40:04.558Z,57.32
2018-05-15T22:41:04.526Z,57.80
2018-05-15T22:42:04.522Z,57.80
2018-05-15T22:43:04.577Z,57.70
2018-05-15T22:44:04.493Z,57.60
2018-05-15T22:45:04.544Z,57.99
2018-05-15T22:46:04.491Z,58.09
2018-05-15T22:47:04.506Z,58.47
2018-05-15T22:48:04.459Z,58.47
2018-05-15T22:49:04.433Z,58.47
2018-05-15T22:50:04.487Z,58.47
2018-05-15T22:51:04.417Z,58.86
2018-05-15T22:52:04.395Z,58.95
2018-05-15T22:53:04.391Z,58.76
2018-05-15T22:54:04.394Z,58.86
2018-05-15T22:55:04.402Z,58.86
2018-05-15T22:56:04.359Z,58.86
2018-05-15T22:57:04.342Z,58.76
2018-05-15T22:58:04.326Z,58.67
2018-05-15T22:59:04.321Z,58.67
2018-05-15T23:00:04.308Z,58.57
2018-05-15T23:01:04.291Z,58.57
2018-05-15T23:02:04.286Z,59.34
2018-05-15T23:03:04.301Z,58.57
2018-05-15T23:04:04.298Z,58.57
2018-05-15T23:05:04.280Z,59.05
2018-05-15T23:06:04.239Z,59.05
2018-05-15T23:07:04.217Z,59.15
2018-05-15T23:08:04.237Z,59.24
2018-05-15T23:09:04.186Z,59.82
2018-05-15T23:10:04.186Z,59.72
2018-05-15T23:11:04.174Z,59.53
2018-05-15T23:12:04.163Z,59.82
2018-05-15T23:13:04.149Z,59.44
2018-05-15T23:14:04.138Z,59.72
2018-05-15T23:15:04.124Z,59.72
2018-05-15T23:16:04.105Z,59.34
2018-05-15T23:17:04.108Z,59.05
2018-05-15T23:18:04.092Z,58.76
2018-05-15T23:19:04.075Z,59.44
2018-05-15T23:20:04.065Z,58.76
2018-05-15T23:21:04.054Z,59.05
2018-05-15T23:22:04.041Z,59.34
2018-05-15T23:23:04.031Z,59.63
2018-05-15T23:24:04.058Z,59.82
2018-05-15T23:25:04.006Z,59.72
2018-05-15T23:26:03.983Z,59.44
2018-05-15T23:27:03.979Z,58.86
2018-05-15T23:28:03.956Z,59.44
2018-05-15T23:29:03.958Z,59.34
2018-05-15T23:30:03.970Z,59.24